Time;durP1;ratioP1;P1;durP2;ratioP2;P2;SDS_P1;SDS_P2;PMS_P1;PMS_P2;Temp;Humidity;BMP_temperature;BMP_pressure;BME280_temperature;BME280_humidity;BME280_pressure;Samples;Min_cycle;Max_cycle;Signal;HPM_P1;HPM_P2
2022/11/02 00:00:12;;;;;;;;;;;;;;;12.96;97.96;100909.25;2087673;28;20404;-70
2022/11/02 00:01:20;;;;;;;;;;;;;;;12.95;97.93;100915.72;2088500;28;19919;-68
2022/11/02 00:02:24;;;;;;;;;;;;;;;12.95;98.05;100911.13;2087900;28;20415;-68
2022/11/02 00:03:27;;;;;;;;;;;;;;;12.97;98.03;100916.25;2088686;28;20007;-68
2022/11/02 00:04:32;;;;;;;;;;;;;;;12.96;98.08;100911.97;2095027;28;19991;-68
2022/11/02 00:05:35;;;;;;;;;;;;;;;12.94;98.18;100909.53;2101368;28;19918;-68
2022/11/02 00:06:40;;;;;;;;;;;;;;;12.97;98.32;100913.56;2101577;28;19919;-68
2022/11/02 00:07:41;;;;;;;;;;;;;;;12.97;98.14;100908.16;2094706;28;20451;-68
2022/11/02 00:08:43;;;;;;;;;;;;;;;13.00;98.08;100912.97;2092175;28;19916;-69
2022/11/02 00:09:45;;;;;;;;;;;;;;;13.02;98.01;100908.13;2094648;28;19920;-68
2022/11/02 00:10:46;;;;;;;;;;;;;;;13.02;98.05;100921.63;2086553;28;19920;-68
2022/11/02 00:11:57;;;;;;;;;;;;;;;12.96;98.25;100912.75;2088731;28;20409;-68
2022/11/02 00:13:04;;;;;;;;;;;;;;;12.98;98.13;100924.06;2092276;28;20397;-68
2022/11/02 00:14:09;;;;;;;;;;;;;;;13.00;98.13;100915.69;2087718;28;19913;-68
2022/11/02 00:15:14;;;;;;;;;;;;;;;13.00;98.22;100923.78;2077077;28;19913;-69
2022/11/02 00:16:18;;;;;;;;;;;;;;;12.95;98.05;100918.44;2086748;28;20296;-69
2022/11/02 00:17:23;;;;;;;;;;;;;;;12.95;98.21;100921.13;2086474;28;19913;-69
2022/11/02 00:18:24;;;;;;;;;;;;;;;12.97;98.15;100925.16;2085937;28;19913;-69
2022/11/02 00:19:28;;;;;;;;;;;;;;;13.00;98.43;100923.78;2094668;28;19917;-69
2022/11/02 00:20:30;;;;;;;;;;;;;;;13.05;98.37;100931.00;2080379;28;20581;-70
2022/11/02 00:21:33;;;;;;;;;;;;;;;13.07;98.35;100928.84;2074250;28;20301;-69
2022/11/02 00:22:38;;;;;;;;;;;;;;;13.06;98.36;100928.03;2082399;28;20611;-68
2022/11/02 00:23:43;;;;;;;;;;;;;;;13.08;98.38;100930.44;2090431;28;20291;-69
2022/11/02 00:24:45;;;;;;;;;;;;;;;13.06;98.16;100928.03;2090318;28;19919;-69
2022/11/02 00:25:47;;;;;;;;;;;;;;;13.06;98.31;100932.63;2082099;28;19912;-68
2022/11/02 00:26:49;;;;;;;;;;;;;;;13.07;98.45;100926.13;2080960;28;19920;-68
2022/11/02 00:27:51;;;;;;;;;;;;;;;13.02;98.27;100927.00;2074007;28;19913;-69
2022/11/02 00:28:54;;;;;;;;;;;;;;;13.02;98.34;100924.31;2073923;28;20357;-68
2022/11/02 00:29:56;;;;;;;;;;;;;;;13.04;98.32;100926.72;2074222;28;19913;-68
2022/11/02 00:30:58;;;;;;;;;;;;;;;13.04;98.37;100932.91;2090608;28;19921;-68
2022/11/02 00:32:00;;;;;;;;;;;;;;;13.06;98.33;100928.03;2097487;28;19912;-68
2022/11/02 00:33:02;;;;;;;;;;;;;;;13.03;98.05;100923.22;2089030;28;19912;-68
2022/11/02 00:34:04;;;;;;;;;;;;;;;13.03;98.24;100931.31;2081244;28;19936;-69
2022/11/02 00:35:07;;;;;;;;;;;;;;;13.03;98.09;100933.22;2088609;28;19913;-68
2022/11/02 00:36:09;;;;;;;;;;;;;;;13.02;98.13;100932.41;2089096;28;19913;-69
2022/11/02 00:37:11;;;;;;;;;;;;;;;13.00;97.88;100934.56;2081327;28;19920;-70
2022/11/02 00:38:16;;;;;;;;;;;;;;;12.98;97.95;100931.34;2089131;28;19913;-69
2022/11/02 00:39:19;;;;;;;;;;;;;;;13.01;97.96;100935.38;2081053;28;19913;-69
2022/11/02 00:40:21;;;;;;;;;;;;;;;13.03;97.89;100941.31;2080587;28;19920;-69
2022/11/02 00:41:28;;;;;;;;;;;;;;;13.05;98.21;100941.81;2088367;28;19921;-69
2022/11/02 00:42:34;;;;;;;;;;;;;;;13.05;98.20;100937.25;2082090;28;19920;-70
2022/11/02 00:43:36;;;;;;;;;;;;;;;13.05;97.92;100942.63;2081775;28;19935;-67
2022/11/02 00:44:39;;;;;;;;;;;;;;;13.03;97.73;100938.59;2081743;28;19913;-67
2022/11/02 00:45:41;;;;;;;;;;;;;;;13.05;97.96;100941.81;2081840;28;19912;-69
2022/11/02 00:46:43;;;;;;;;;;;;;;;13.05;97.97;100944.50;2081184;28;20304;-68
2022/11/02 00:47:45;;;;;;;;;;;;;;;13.06;97.79;100944.25;2089693;28;19916;-69
2022/11/02 00:48:48;;;;;;;;;;;;;;;13.04;97.74;100941.00;2089761;28;20395;-69
2022/11/02 00:49:53;;;;;;;;;;;;;;;13.00;97.64;100945.38;2081154;28;19920;-69
2022/11/02 00:50:55;;;;;;;;;;;;;;;13.01;97.71;100941.56;2083080;28;20427;-69
2022/11/02 00:52:00;;;;;;;;;;;;;;;13.02;97.65;100948.59;2090115;28;19919;-69
2022/11/02 00:53:03;;;;;;;;;;;;;;;13.02;97.54;100942.38;2074082;28;19913;-69
2022/11/02 00:54:04;;;;;;;;;;;;;;;13.04;97.61;100951.81;2065786;28;20384;-70
2022/11/02 00:55:10;;;;;;;;;;;;;;;13.05;97.50;100948.03;2081828;28;20304;-69
2022/11/02 00:56:13;;;;;;;;;;;;;;;13.07;97.38;100945.03;2067144;28;20259;-69
2022/11/02 00:57:17;;;;;;;;;;;;;;;13.06;97.45;100948.84;2087631;28;20394;-68
2022/11/02 00:58:22;;;;;;;;;;;;;;;13.06;97.31;100957.72;2098293;28;20367;-68
2022/11/02 00:59:25;;;;;;;;;;;;;;;13.07;97.29;100945.84;2090724;28;19913;-68
2022/11/02 01:00:33;;;;;;;;;;;;;;;13.08;97.52;100957.44;2090286;28;20380;-68
2022/11/02 01:01:35;;;;;;;;;;;;;;;13.07;96.94;100945.84;2081307;28;19920;-68
2022/11/02 01:02:40;;;;;;;;;;;;;;;13.07;96.97;100945.84;2080734;28;20400;-68
2022/11/02 01:03:41;;;;;;;;;;;;;;;13.08;96.96;100952.03;2072949;28;20377;-68
2022/11/02 01:04:43;;;;;;;;;;;;;;;13.06;96.93;100946.94;2072816;28;19917;-68
2022/11/02 01:05:51;;;;;;;;;;;;;;;13.06;96.84;100949.63;2096959;28;20483;-67
2022/11/02 01:06:52;;;;;;;;;;;;;;;13.03;96.42;100947.50;2097187;28;19923;-68
2022/11/02 01:07:55;;;;;;;;;;;;;;;13.03;96.33;100955.59;2088805;28;19920;-68
2022/11/02 01:08:57;;;;;;;;;;;;;;;13.06;96.33;100952.34;2096961;28;19912;-68
2022/11/02 01:10:01;;;;;;;;;;;;;;;13.07;96.34;100955.84;2080905;28;19953;-68
2022/11/02 01:11:13;;;;;;;;;;;;;;;13.03;96.32;100955.59;2072906;28;20246;-68
2022/11/02 01:12:15;;;;;;;;;;;;;;;13.02;96.15;100955.88;2081173;28;19913;-68
2022/11/02 01:13:17;;;;;;;;;;;;;;;13.03;96.13;100958.31;2080853;28;19924;-69
2022/11/02 01:14:20;;;;;;;;;;;;;;;13.02;96.02;100959.41;2090347;28;19920;-69
2022/11/02 01:15:21;;;;;;;;;;;;;;;12.97;96.05;100957.53;2090006;28;19920;-69
2022/11/02 01:16:23;;;;;;;;;;;;;;;12.98;96.09;100958.34;2090179;28;19913;-69
2022/11/02 01:17:26;;;;;;;;;;;;;;;13.00;95.90;100956.19;2090044;28;20311;-68
2022/11/02 01:18:28;;;;;;;;;;;;;;;13.01;95.71;100957.78;2089917;28;20289;-68
2022/11/02 01:19:33;;;;;;;;;;;;;;;13.01;96.03;100959.69;2082511;28;19939;-68
2022/11/02 01:20:35;;;;;;;;;;;;;;;12.99;95.72;100965.38;2097676;28;19923;-68
2022/11/02 01:21:37;;;;;;;;;;;;;;;12.93;95.62;100961.09;2097720;28;20070;-69
2022/11/02 01:22:41;;;;;;;;;;;;;;;12.91;95.63;100961.38;2081813;28;19920;-68
2022/11/02 01:23:45;;;;;;;;;;;;;;;12.92;95.72;100970.28;2089757;28;19920;-68
2022/11/02 01:24:47;;;;;;;;;;;;;;;12.93;95.77;100969.22;2082346;28;19920;-68
2022/11/02 01:25:51;;;;;;;;;;;;;;;12.93;96.11;100966.50;2081817;28;19913;-68
2022/11/02 01:26:54;;;;;;;;;;;;;;;12.91;95.97;100972.16;2089014;28;19927;-69
2022/11/02 01:27:57;;;;;;;;;;;;;;;12.92;95.93;100971.06;2089783;28;19912;-69
2022/11/02 01:28:58;;;;;;;;;;;;;;;12.92;96.07;100970.28;2081231;28;19913;-68
2022/11/02 01:30:00;;;;;;;;;;;;;;;12.92;96.24;100973.78;2089915;28;19912;-69
2022/11/02 01:31:02;;;;;;;;;;;;;;;12.92;96.08;100971.06;2089921;28;20372;-69
2022/11/02 01:32:04;;;;;;;;;;;;;;;12.93;95.85;100972.69;2081472;28;19928;-68
2022/11/02 01:33:09;;;;;;;;;;;;;;;12.91;95.87;100971.38;2090511;28;20420;-69
2022/11/02 01:34:13;;;;;;;;;;;;;;;12.91;95.64;100968.66;2098108;28;19912;-68
2022/11/02 01:35:15;;;;;;;;;;;;;;;12.90;95.77;100965.16;2090361;28;20391;-69
2022/11/02 01:36:20;;;;;;;;;;;;;;;12.86;95.68;100963.31;2089606;28;19912;-68
2022/11/02 01:37:22;;;;;;;;;;;;;;;12.85;95.63;100964.41;2082302;28;19920;-68
2022/11/02 01:38:25;;;;;;;;;;;;;;;12.86;95.80;100971.41;2089004;28;19912;-69
2022/11/02 01:39:27;;;;;;;;;;;;;;;12.84;95.81;100960.91;2080996;28;19913;-68
2022/11/02 01:40:33;;;;;;;;;;;;;;;12.81;95.76;100957.97;2080570;28;19917;-69
2022/11/02 01:41:35;;;;;;;;;;;;;;;12.79;95.77;100962.84;2081608;28;19913;-68
2022/11/02 01:42:38;;;;;;;;;;;;;;;12.78;95.81;100964.75;2079229;28;20420;-69
2022/11/02 01:43:49;;;;;;;;;;;;;;;12.74;95.61;100961.81;2089109;28;19913;-68
2022/11/02 01:44:54;;;;;;;;;;;;;;;12.71;95.53;100961.56;2088761;28;19919;-68
2022/11/02 01:46:00;;;;;;;;;;;;;;;12.69;95.73;100969.94;2088836;28;20560;-68
2022/11/02 01:47:12;;;;;;;;;;;;;;;12.64;95.54;100970.00;2088784;28;19928;-68
2022/11/02 01:48:14;;;;;;;;;;;;;;;12.63;95.41;100960.25;2073490;28;19913;-68
2022/11/02 01:49:21;;;;;;;;;;;;;;;12.63;95.46;100962.97;2072493;28;20296;-68
2022/11/02 01:50:26;;;;;;;;;;;;;;;12.64;95.44;100961.91;2080772;28;19913;-68
2022/11/02 01:51:35;;;;;;;;;;;;;;;12.62;95.40;100958.66;2090089;28;19912;-68
2022/11/02 01:52:38;;;;;;;;;;;;;;;12.61;95.26;100953.53;2081672;28;19913;-68
2022/11/02 01:53:43;;;;;;;;;;;;;;;12.58;95.15;100959.50;2073921;28;20396;-68
2022/11/02 01:54:46;;;;;;;;;;;;;;;12.55;95.16;100963.59;2081633;28;19912;-68
2022/11/02 01:55:49;;;;;;;;;;;;;;;12.50;95.03;100953.63;2087767;28;19924;-68
2022/11/02 01:56:52;;;;;;;;;;;;;;;12.47;94.99;100953.38;2089688;28;19913;-68
2022/11/02 01:57:59;;;;;;;;;;;;;;;12.43;95.10;100955.84;2089227;28;19913;-68
2022/11/02 01:59:03;;;;;;;;;;;;;;;12.39;95.13;100945.88;2097998;28;19919;-68
2022/11/02 02:00:14;;;;;;;;;;;;;;;12.38;95.20;100946.97;2098184;28;19919;-68
2022/11/02 02:01:15;;;;;;;;;;;;;;;12.34;95.17;100951.31;2098219;28;19919;-68
2022/11/02 06:11:11;;;;;;;18.80;7.38;;;;;;;10.34;99.66;101016.38;2070370;28;20761;-72
2022/11/02 06:12:14;;;;;;;13.60;6.80;;;;;;;10.55;99.50;101011.81;2069650;28;20315;-72
2022/11/02 06:13:19;;;;;;;19.52;7.28;;;;;;;10.73;98.76;101010.50;2070635;28;20803;-74
2022/11/02 06:14:22;;;;;;;20.73;8.40;;;;;;;10.78;98.61;101013.22;2068153;28;20046;-69
2022/11/02 06:15:24;;;;;;;19.38;7.43;;;;;;;10.77;98.74;101014.28;2062055;28;20067;-72
2022/11/02 06:16:30;;;;;;;18.58;7.78;;;;;;;10.77;98.49;101011.59;2054376;28;20287;-71
2022/11/02 06:17:38;;;;;;;18.63;7.45;;;;;;;10.93;98.41;101014.28;2055066;28;20058;-77
2022/11/02 06:18:41;;;;;;;15.45;6.55;;;;;;;11.23;97.30;101010.75;2047863;28;20060;-79
2022/11/02 06:19:43;;;;;;;16.63;7.13;;;;;;;11.56;96.76;101018.22;2046783;28;20079;-80
2022/11/02 06:20:51;;;;;;;14.50;6.57;;;;;;;11.93;95.77;101018.94;2063603;28;20098;-72
2022/11/02 06:21:54;;;;;;;14.75;7.22;;;;;;;12.25;94.99;101019.31;2054399;28;20047;-72
2022/11/02 06:22:56;;;;;;;12.93;6.75;;;;;;;12.58;94.43;101019.66;2054292;28;20043;-71
2022/11/02 06:23:59;;;;;;;13.75;7.25;;;;;;;12.88;93.19;101018.63;2046368;28;20060;-71
2022/11/02 06:25:01;;;;;;;19.38;6.38;;;;;;;13.17;92.29;101015.94;2038813;28;20048;-70
2022/11/02 06:26:06;;;;;;;10.80;6.05;;;;;;;13.49;91.02;101017.25;2054793;28;20035;-71
2022/11/02 06:27:10;;;;;;;12.65;6.20;;;;;;;13.80;90.21;101017.72;2062224;28;20094;-71
2022/11/02 06:28:13;;;;;;;13.10;5.60;;;;;;;14.06;88.79;101010.13;2046588;28;20419;-74
2022/11/02 06:29:15;;;;;;;12.45;5.45;;;;;;;14.33;87.52;101009.47;2054282;28;20047;-71
2022/11/02 06:30:18;;;;;;;10.30;5.88;;;;;;;14.62;86.35;101005.00;2059705;28;20514;-71
2022/11/02 06:31:20;;;;;;;11.93;5.80;;;;;;;14.96;85.31;101016.38;2045499;28;20487;-70
2022/11/02 06:32:23;;;;;;;16.17;5.75;;;;;;;15.23;83.20;101009.41;2046035;28;20511;-71
2022/11/02 06:33:25;;;;;;;16.67;6.05;;;;;;;15.47;81.33;101011.94;2053709;28;20042;-71
2022/11/02 06:34:28;;;;;;;13.35;5.95;;;;;;;15.68;80.11;101013.19;2053995;28;20055;-72
2022/11/02 06:35:33;;;;;;;15.63;5.97;;;;;;;15.51;76.60;101016.47;2061494;28;20055;-67
2022/11/02 06:36:36;;;;;;;14.10;5.55;;;;;;;15.28;74.93;101012.81;2068979;28;20064;-67
2022/11/02 06:37:39;;;;;;;10.63;5.80;;;;;;;15.58;74.81;101016.06;2061859;28;20050;-80
2022/11/02 06:38:43;;;;;;;9.65;5.18;;;;;;;15.66;73.27;101011.84;2062035;28;20057;-78
2022/11/02 06:39:45;;;;;;;13.40;6.03;;;;;;;15.75;72.96;101015.50;2061879;28;20058;-76
2022/11/02 06:41:00;;;;;;;17.42;5.85;;;;;;;15.80;72.14;101022.75;2046264;28;20047;-81
2022/11/02 06:42:04;;;;;;;12.35;5.90;;;;;;;15.90;71.34;101023.31;2063599;28;20061;-85
2022/11/02 06:43:06;;;;;;;13.38;5.75;;;;;;;16.22;70.82;101024.28;2069790;28;20119;-86
2022/11/02 06:44:09;;;;;;;14.95;5.95;;;;;;;16.30;70.33;101015.44;2062801;28;20507;-86
2022/11/02 06:45:16;;;;;;;14.10;6.03;;;;;;;16.40;69.75;101025.25;2060919;28;20046;-76
2022/11/02 06:46:18;;;;;;;12.50;6.30;;;;;;;16.72;69.25;101026.13;2046866;28;20027;-84
2022/11/02 06:47:23;;;;;;;11.25;5.78;;;;;;;16.97;68.75;101027.47;2039600;28;20044;-83
2022/11/02 06:48:27;;;;;;;12.93;5.90;;;;;;;17.16;67.81;101032.69;2047413;28;20078;-80
2022/11/02 06:49:29;;;;;;;10.18;5.70;;;;;;;17.20;66.98;101020.88;2062643;28;20052;-79
2022/11/02 06:50:32;;;;;;;13.95;5.72;;;;;;;17.21;66.16;101025.19;2063388;28;20093;-80
2022/11/02 06:51:38;;;;;;;9.38;5.45;;;;;;;17.27;65.70;101017.72;2062436;28;20069;-80
2022/11/02 06:52:44;;;;;;;14.20;6.00;;;;;;;17.34;65.05;101018.88;2045964;28;20565;-80
2022/11/02 06:53:46;;;;;;;11.23;5.50;;;;;;;17.36;64.87;101026.72;2039454;28;20050;-80
2022/11/02 06:54:48;;;;;;;9.73;5.68;;;;;;;17.63;64.46;101025.72;2054632;28;20068;-78
2022/11/02 06:55:55;;;;;;;11.85;5.57;;;;;;;18.00;63.31;101020.88;2062728;28;20499;-78
2022/11/02 06:56:58;;;;;;;11.43;6.07;;;;;;;18.17;62.12;101010.03;2062536;28;20769;-78
2022/11/02 06:58:00;;;;;;;16.52;5.75;;;;;;;18.42;61.40;101013.09;2054054;28;20065;-77
2022/11/02 06:59:05;;;;;;;12.10;6.45;;;;;;;18.62;61.10;101022.53;2053931;28;20039;-71
2022/11/02 07:00:11;;;;;;;8.88;5.82;;;;;;;18.59;59.97;101010.34;2056716;28;20031;-75
2022/11/02 07:01:14;;;;;;;12.80;5.93;;;;;;;18.66;59.42;101010.69;2053303;28;20419;-72
2022/11/02 07:02:16;;;;;;;9.93;6.07;;;;;;;18.73;59.09;101013.75;2045849;28;20637;-74
2022/11/02 07:03:22;;;;;;;11.13;5.40;;;;;;;18.88;58.62;101006.19;2053793;28;20732;-74
2022/11/02 07:04:24;;;;;;;10.48;5.57;;;;;;;19.26;57.48;101021.78;2061305;28;20050;-73
2022/11/02 07:05:28;;;;;;;13.48;5.75;;;;;;;19.31;56.72;101016.16;2060568;28;20073;-73
2022/11/02 07:06:30;;;;;;;10.57;5.70;;;;;;;19.18;56.92;101016.06;2037003;29;20067;-75
2022/11/02 07:07:34;;;;;;;9.68;5.70;;;;;;;18.78;57.63;101022.88;2036974;28;20512;-75
2022/11/02 07:08:37;;;;;;;8.98;5.90;;;;;;;18.59;58.32;101015.78;2052908;28;20042;-74
2022/11/02 07:09:39;;;;;;;11.48;5.25;;;;;;;18.30;58.56;101014.50;2051867;28;20051;-74
2022/11/02 07:10:45;;;;;;;8.88;5.22;;;;;;;18.05;59.39;101021.53;2065248;28;20062;-75
2022/11/02 07:11:48;;;;;;;11.88;5.50;;;;;;;17.88;59.74;101015.25;2068039;28;20038;-74
2022/11/02 07:12:54;;;;;;;12.10;5.78;;;;;;;17.70;60.38;101017.91;2060199;28;20430;-75
2022/11/02 07:13:57;;;;;;;13.43;5.50;;;;;;;17.57;60.65;101011.44;2067343;28;20855;-75
2022/11/02 07:14:59;;;;;;;11.15;5.68;;;;;;;18.05;60.44;101015.28;2066610;28;20609;-75
2022/11/02 07:16:02;;;;;;;8.90;5.60;;;;;;;18.51;59.33;101006.53;2060252;28;20402;-74
2022/11/02 07:17:06;;;;;;;11.73;5.50;;;;;;;18.89;58.14;101007.81;2067647;28;20038;-75
2022/11/02 07:18:10;;;;;;;11.13;5.68;;;;;;;18.77;57.72;101013.09;2068031;28;20050;-75
2022/11/02 07:19:14;;;;;;;11.13;5.68;;;;;;;18.78;57.84;101022.88;2068180;28;20053;-74
2022/11/02 07:20:19;;;;;;;10.52;5.80;;;;;;;18.90;57.56;101012.13;2059804;28;20042;-75
2022/11/02 07:21:24;;;;;;;12.88;6.97;;;;;;;19.17;56.95;101022.63;2061547;28;20126;-77
2022/11/02 07:22:27;;;;;;;8.75;5.45;;;;;;;19.31;56.18;101018.91;2071512;28;20614;-76
2022/11/02 07:23:32;;;;;;;9.25;4.93;;;;;;;19.77;55.36;101011.84;2055619;28;20926;-77
2022/11/02 07:24:35;;;;;;;9.50;5.60;;;;;;;20.26;54.15;101014.88;2056484;28;20853;-77
2022/11/02 07:25:38;;;;;;;9.20;5.35;;;;;;;20.34;53.63;101017.56;2048267;28;20058;-75
2022/11/02 07:26:43;;;;;;;11.25;5.63;;;;;;;20.62;52.53;101014.31;2056890;28;20379;-75
2022/11/02 07:27:45;;;;;;;9.50;4.90;;;;;;;20.96;51.91;101013.16;2048193;28;20119;-77
2022/11/02 07:28:49;;;;;;;15.02;5.60;;;;;;;21.65;50.91;101014.28;2048801;28;20047;-74
2022/11/02 07:29:51;;;;;;;10.77;5.32;;;;;;;22.61;49.81;101021.09;2064292;28;20851;-75
2022/11/02 07:30:54;;;;;;;9.93;5.38;;;;;;;23.21;48.17;101021.97;2047364;28;20495;-76
2022/11/02 07:31:56;;;;;;;8.63;5.20;;;;;;;23.64;46.41;101022.19;2040516;28;20063;-73
2022/11/02 07:33:01;;;;;;;12.40;5.22;;;;;;;24.13;46.04;101019.84;2056139;28;20042;-77
2022/11/02 07:34:06;;;;;;;9.98;4.97;;;;;;;23.88;44.53;101022.03;2056807;28;20082;-77
2022/11/02 07:35:13;;;;;;;9.48;4.95;;;;;;;23.82;44.64;101017.97;2056236;28;20034;-76
2022/11/02 07:36:15;;;;;;;10.60;5.00;;;;;;;24.27;44.54;101017.41;2063962;28;20049;-75
2022/11/02 07:37:18;;;;;;;8.70;4.80;;;;;;;24.59;44.30;101019.22;2056117;28;20034;-71
2022/11/02 07:38:21;;;;;;;9.23;4.97;;;;;;;24.91;43.28;101011.59;2047515;29;20042;-73
2022/11/02 07:39:28;;;;;;;9.43;5.22;;;;;;;25.47;42.38;101015.72;2048752;28;20051;-71
2022/11/02 07:40:34;;;;;;;8.43;5.03;;;;;;;25.92;41.13;101012.13;2055442;28;20399;-71
2022/11/02 07:41:36;;;;;;;8.95;4.93;;;;;;;26.59;39.99;101014.16;2047989;28;20035;-72
2022/11/02 07:42:45;;;;;;;6.78;4.55;;;;;;;27.15;39.19;101004.91;2056891;28;20043;-71
2022/11/02 07:43:51;;;;;;;7.05;4.97;;;;;;;27.67;38.36;101004.91;2057027;28;20046;-76
2022/11/02 07:45:14;;;;;;;6.80;4.47;;;;;;;28.04;37.47;101006.75;2063901;28;20045;-72
2022/11/02 07:46:19;;;;;;;7.80;4.53;;;;;;;28.17;37.22;101010.75;2056566;28;20035;-73
2022/11/02 07:47:23;;;;;;;6.63;4.50;;;;;;;28.24;36.41;101008.00;2047539;28;20530;-73
2022/11/02 07:48:26;;;;;;;7.57;4.38;;;;;;;28.11;36.52;101013.09;2048113;28;20058;-73
2022/11/02 07:49:29;;;;;;;8.40;4.85;;;;;;;28.42;36.47;101008.91;2063463;28;20053;-72
2022/11/02 07:50:33;;;;;;;7.60;4.60;;;;;;;28.54;35.30;101006.97;2055744;28;20069;-70
2022/11/02 07:51:38;;;;;;;6.68;4.38;;;;;;;28.68;34.96;101004.25;2055641;28;20049;-70
2022/11/02 07:52:49;;;;;;;8.95;4.45;;;;;;;28.92;34.13;100999.16;2056199;28;20039;-70
2022/11/02 07:53:50;;;;;;;;;;;;;;;29.12;33.77;100997.63;2057118;28;20039;-71
2022/11/02 07:54:55;;;;;;;9.38;4.80;;;;;;;29.47;34.08;101001.56;2039776;29;19915;-72
2022/11/02 07:56:04;;;;;;;7.32;4.20;;;;;;;29.65;33.21;100999.59;2048547;28;20062;-71
2022/11/02 07:57:07;;;;;;;7.53;4.85;;;;;;;29.96;32.42;101000.72;2055430;28;20052;-71
2022/11/02 07:58:13;;;;;;;7.70;4.68;;;;;;;30.08;32.47;101005.03;2055579;28;20434;-69
2022/11/02 07:59:16;;;;;;;8.23;4.82;;;;;;;29.96;32.27;101000.72;2071094;28;20398;-69
2022/11/02 08:00:20;;;;;;;8.50;4.68;;;;;;;30.21;32.24;101003.41;2055710;28;20039;-69
2022/11/02 08:01:24;;;;;;;6.85;4.45;;;;;;;30.47;31.92;101007.66;2063227;28;20729;-69
2022/11/02 08:02:28;;;;;;;12.52;5.10;;;;;;;30.83;31.33;101006.69;2055387;28;20042;-70
2022/11/02 08:03:32;;;;;;;8.20;4.53;;;;;;;30.88;31.30;101001.50;2048108;28;20518;-69
2022/11/02 08:04:38;;;;;;;7.55;4.50;;;;;;;30.49;31.18;101001.72;2057196;28;20045;-69
2022/11/02 08:05:43;;;;;;;8.38;4.40;;;;;;;30.62;30.67;100996.50;2056415;28;20046;-70
2022/11/02 08:06:50;;;;;;;7.90;4.47;;;;;;;30.38;31.04;101009.28;2048768;28;20043;-69
2022/11/02 08:07:59;;;;;;;11.10;4.57;;;;;;;29.62;31.78;100997.63;2057008;28;20054;-70
2022/11/02 08:09:02;;;;;;;9.32;4.75;;;;;;;29.28;32.53;100995.25;2049359;28;20038;-70
2022/11/02 08:10:06;;;;;;;9.57;4.38;;;;;;;28.15;32.94;101002.03;2048448;28;20039;-70
2022/11/02 08:11:10;;;;;;;9.98;4.40;;;;;;;26.56;34.96;100999.16;2048371;28;20192;-70
2022/11/02 08:12:15;;;;;;;8.50;4.82;;;;;;;25.59;36.39;101007.25;2048181;28;20124;-70
2022/11/02 08:13:22;;;;;;;7.22;4.28;;;;;;;25.80;36.99;101009.53;2056262;28;20039;-70
2022/11/02 08:14:24;;;;;;;8.30;4.65;;;;;;;26.78;36.17;101010.44;2063565;28;20390;-70
2022/11/02 08:15:27;;;;;;;6.00;4.20;;;;;;;27.74;35.43;101007.72;2063092;28;20042;-70
2022/11/02 08:16:32;;;;;;;8.70;4.53;;;;;;;28.53;34.06;101006.19;2047515;29;20039;-71
2022/11/02 08:17:34;;;;;;;9.88;3.97;;;;;;;28.99;33.47;101001.94;2048967;28;20050;-70
2022/11/02 08:18:40;;;;;;;9.32;5.20;;;;;;;29.49;33.25;101004.72;2071367;28;20034;-71
2022/11/02 08:19:42;;;;;;;7.90;4.32;;;;;;;29.95;32.01;101003.88;2047468;29;20043;-70
2022/11/02 08:20:45;;;;;;;6.95;4.47;;;;;;;30.37;31.63;101007.72;2047479;28;20062;-70
2022/11/02 08:21:47;;;;;;;7.93;4.60;;;;;;;30.75;31.10;101005.91;2071347;28;20548;-70
2022/11/02 08:22:50;;;;;;;8.73;4.95;;;;;;;31.04;30.66;101002.97;2063440;28;20034;-70
2022/11/02 08:23:54;;;;;;;9.02;4.38;;;;;;;31.29;30.25;101002.78;2063079;28;20050;-71
2022/11/02 08:24:58;;;;;;;8.95;4.18;;;;;;;31.47;29.85;101000.66;2055336;28;20051;-70
2022/11/02 08:26:01;;;;;;;8.15;4.20;;;;;;;31.74;29.59;101002.75;2056772;28;20046;-70
2022/11/02 08:27:07;;;;;;;6.97;3.97;;;;;;;31.86;29.13;101002.22;2047795;29;20043;-70
2022/11/02 08:28:15;;;;;;;8.85;4.30;;;;;;;32.13;28.98;101001.56;2050696;28;20042;-83
2022/11/02 08:29:17;;;;;;;8.40;4.30;;;;;;;32.52;28.67;100996.28;2065195;28;20045;-86
2022/11/02 08:30:20;;;;;;;8.38;5.10;;;;;;;32.75;28.02;100997.56;2049362;28;20035;-85
2022/11/02 08:31:23;;;;;;;11.27;5.30;;;;;;;32.92;28.14;101004.88;2048723;28;20046;-85
2022/11/02 08:32:25;;;;;;;8.60;5.00;;;;;;;32.97;27.80;100998.03;2049534;28;20039;-87
2022/11/02 08:33:30;;;;;;;8.45;5.05;;;;;;;33.07;27.62;100996.28;2049277;28;20046;-85
2022/11/02 08:34:35;;;;;;;8.43;4.22;;;;;;;33.07;27.53;101001.88;2056747;28;20502;-86
2022/11/02 08:35:44;;;;;;;6.40;4.00;;;;;;;33.15;27.53;100997.75;2064987;28;20043;-86
2022/11/02 08:36:46;;;;;;;7.18;4.10;;;;;;;33.33;27.41;100997.47;2056247;28;20045;-86
2022/11/02 08:37:55;;;;;;;9.95;4.40;;;;;;;33.56;27.14;100999.47;2048374;28;20046;-86
2022/11/02 08:39:00;;;;;;;7.30;3.70;;;;;;;33.76;26.53;100997.47;2051258;28;20098;-85
2022/11/02 08:40:11;;;;;;;5.57;3.63;;;;;;;33.98;26.46;100994.28;2056185;28;20050;-86
2022/11/02 08:41:16;;;;;;;8.48;4.05;;;;;;;34.21;25.97;100999.81;2056935;28;20499;-87
2022/11/02 08:42:18;;;;;;;6.60;3.80;;;;;;;34.12;26.28;100991.22;2048709;28;20050;-86
2022/11/02 08:43:22;;;;;;;5.60;3.95;;;;;;;34.18;26.00;100992.28;2048333;28;20099;-86
2022/11/02 08:44:27;;;;;;;9.32;3.75;;;;;;;34.17;26.20;100987.91;2040758;29;20040;-86
2022/11/02 08:45:33;;;;;;;8.68;4.20;;;;;;;34.31;25.83;100990.41;2041983;28;20046;-86
2022/11/02 08:46:36;;;;;;;5.10;3.50;;;;;;;34.37;25.55;100991.47;2055755;28;20061;-85
2022/11/02 08:47:41;;;;;;;8.98;3.55;;;;;;;34.54;25.56;100988.75;2041618;28;20506;-86
2022/11/02 08:48:46;;;;;;;7.38;3.55;;;;;;;34.53;25.06;100987.97;2049281;28;20683;-87
2022/11/02 08:49:57;;;;;;;5.93;3.42;;;;;;;34.47;25.17;100997.25;2057598;28;20043;-86
2022/11/02 08:50:59;;;;;;;5.97;3.17;;;;;;;34.51;25.45;100990.38;2048928;28;20042;-85
2022/11/02 08:52:01;;;;;;;7.20;3.40;;;;;;;34.58;25.10;100987.44;2048049;28;20031;-86
2022/11/02 08:53:07;;;;;;;6.10;3.10;;;;;;;34.63;24.61;100991.72;2040257;29;20036;-86
2022/11/02 08:54:10;;;;;;;4.80;3.30;;;;;;;34.63;24.61;100994.53;2042311;28;20126;-86
2022/11/02 08:55:12;;;;;;;6.13;3.40;;;;;;;34.61;25.24;100988.56;2055995;28;20058;-86
2022/11/02 08:56:14;;;;;;;4.57;3.28;;;;;;;34.82;24.47;100988.06;2048048;28;20039;-86
2022/11/02 08:57:17;;;;;;;6.18;3.22;;;;;;;34.87;24.76;100986.78;2048508;28;20039;-86
2022/11/02 08:58:19;;;;;;;7.93;3.17;;;;;;;34.91;24.57;100989.50;2040983;28;20066;-86
2022/11/02 08:59:21;;;;;;;5.95;3.33;;;;;;;34.74;24.48;100978.31;2040796;28;20392;-86
2022/11/02 09:00:31;;;;;;;7.47;3.40;;;;;;;34.84;24.12;100982.06;2056437;28;20039;-86
2022/11/02 09:01:34;;;;;;;6.82;3.72;;;;;;;35.10;24.06;100985.84;2063984;28;20035;-85
2022/11/02 09:02:36;;;;;;;8.68;3.50;;;;;;;35.28;23.81;100983.38;2056465;28;20034;-86
2022/11/02 09:03:41;;;;;;;6.40;3.10;;;;;;;35.31;23.87;100980.91;2049044;28;20132;-86
2022/11/02 09:04:44;;;;;;;7.80;3.00;;;;;;;35.31;24.19;100983.72;2056861;28;20502;-85
2022/11/02 09:05:46;;;;;;;4.82;2.80;;;;;;;35.24;24.13;100979.88;2056606;28;20046;-85
2022/11/02 09:06:49;;;;;;;6.20;3.10;;;;;;;35.24;23.95;100977.06;2048656;28;20051;-85
2022/11/02 09:07:58;;;;;;;7.68;3.42;;;;;;;34.99;23.83;100982.47;2057216;28;20098;-85
2022/11/02 09:09:01;;;;;;;6.70;3.75;;;;;;;35.17;23.90;100980.06;2049409;28;20043;-85
2022/11/02 09:10:07;;;;;;;7.50;3.40;;;;;;;35.00;23.79;100987.66;2050884;28;20038;-85
2022/11/02 09:11:10;;;;;;;8.48;3.65;;;;;;;35.11;23.41;100981.81;2064836;28;20391;-86
2022/11/02 09:12:13;;;;;;;6.60;3.50;;;;;;;34.70;24.42;100985.97;2072875;28;20029;-86
2022/11/02 09:13:19;;;;;;;6.75;3.40;;;;;;;34.40;24.25;100989.03;2065947;28;20366;-86
2022/11/02 09:14:25;;;;;;;6.80;3.20;;;;;;;33.90;24.59;100980.47;2056744;28;20046;-85
2022/11/02 09:15:28;;;;;;;6.50;3.47;;;;;;;34.10;24.52;100988.06;2057507;28;20307;-85
2022/11/02 09:16:31;;;;;;;7.85;3.40;;;;;;;34.21;24.24;100987.84;2063977;28;20042;-84
2022/11/02 09:17:34;;;;;;;5.80;3.35;;;;;;;34.32;24.65;100982.81;2063922;28;20045;-84